createdAt,value
2024-02-28T00:02:01.045Z,95811.41
2024-02-28T00:04:03.792Z,95804.22
2024-02-28T00:06:06.528Z,95802.50
2024-02-28T00:08:09.271Z,95805.03
2024-02-28T00:10:12.052Z,95807.09
2024-02-28T00:12:16.353Z,95811.00
2024-02-28T00:14:19.170Z,95809.34
2024-02-28T00:16:21.904Z,95812.94
2024-02-28T00:18:25.987Z,95816.44
2024-02-28T00:20:30.636Z,95817.28
2024-02-28T00:22:32.364Z,95812.91
2024-02-28T00:24:35.130Z,95820.56
2024-02-28T00:26:37.957Z,95823.13
2024-02-28T00:28:40.644Z,95814.91
2024-02-28T00:30:43.389Z,95818.59
2024-02-28T00:32:46.130Z,95821.28
2024-02-28T00:34:50.264Z,95819.72
2024-02-28T00:36:55.855Z,95819.25
2024-02-28T00:38:59.350Z,95815.34
2024-02-28T00:41:02.196Z,95810.16
2024-02-28T00:43:05.459Z,95813.75
2024-02-28T00:45:11.507Z,95812.47
2024-02-28T00:47:14.239Z,95809.09
2024-02-28T00:49:16.981Z,95812.03
2024-02-28T00:51:21.155Z,95809.22
2024-02-28T00:53:23.873Z,95807.50
2024-02-28T00:55:26.578Z,95819.44
2024-02-28T00:57:29.396Z,95810.56
2024-02-28T00:59:32.178Z,95809.53
2024-02-28T01:01:33.987Z,95811.56
2024-02-28T01:03:36.746Z,95813.59
2024-02-28T01:05:39.443Z,95820.50
2024-02-28T01:07:42.508Z,95821.09
2024-02-28T01:09:45.576Z,95818.41
2024-02-28T01:11:48.322Z,95825.28
2024-02-28T01:13:51.746Z,95821.50
2024-02-28T01:15:55.194Z,95821.88
2024-02-28T01:17:57.988Z,95817.81
2024-02-28T01:20:00.888Z,95823.00
2024-02-28T01:22:03.671Z,95817.72
2024-02-28T01:24:07.213Z,95818.28
2024-02-28T01:26:09.896Z,95818.19
2024-02-28T01:28:12.592Z,95820.09
2024-02-28T01:30:15.671Z,95819.09
2024-02-28T01:32:19.464Z,95825.00
2024-02-28T01:34:22.207Z,95820.63
2024-02-28T01:36:25.073Z,95820.97
2024-02-28T01:38:28.454Z,95821.41
2024-02-28T01:40:32.472Z,95821.22
2024-02-28T01:42:34.237Z,95830.78
2024-02-28T01:44:43.278Z,95826.84
2024-02-28T01:46:46.482Z,95835.16
2024-02-28T01:48:49.254Z,95833.59
2024-02-28T01:50:52.185Z,95835.63
2024-02-28T01:52:54.012Z,95841.25
2024-02-28T01:54:56.944Z,95844.84
2024-02-28T01:57:00.997Z,95846.06
2024-02-28T01:59:04.391Z,95847.44
2024-02-28T02:01:08.341Z,95847.53
2024-02-28T02:03:11.178Z,95851.78
2024-02-28T02:05:14.557Z,95853.38
2024-02-28T02:07:17.624Z,95857.31
2024-02-28T02:09:20.384Z,95858.78
2024-02-28T02:11:24.152Z,95861.50
2024-02-28T02:13:27.261Z,95859.00
2024-02-28T02:15:31.649Z,95860.13
2024-02-28T02:17:34.389Z,95856.75
2024-02-28T02:19:37.353Z,95852.59
2024-02-28T02:21:45.971Z,95855.75
2024-02-28T02:23:49.343Z,95851.78
2024-02-28T02:25:52.076Z,95857.97
2024-02-28T02:27:54.873Z,95864.06
2024-02-28T02:29:57.575Z,95862.25
2024-02-28T02:32:00.315Z,95866.41
2024-02-28T02:34:03.083Z,95865.28
2024-02-28T02:36:06.074Z,95876.66
2024-02-28T02:38:09.141Z,95874.06
2024-02-28T02:40:14.678Z,95879.31
2024-02-28T02:42:18.651Z,95879.88
2024-02-28T02:44:21.389Z,95882.16
2024-02-28T02:46:24.107Z,95890.00
2024-02-28T02:48:26.060Z,95884.38
2024-02-28T02:50:28.991Z,95893.47
2024-02-28T02:52:31.726Z,95890.19
2024-02-28T02:54:34.448Z,95890.66
2024-02-28T02:56:37.800Z,95891.13
2024-02-28T02:58:40.531Z,95887.06
2024-02-28T03:00:43.275Z,95896.38
2024-02-28T03:02:45.986Z,95906.63
2024-02-28T03:04:48.680Z,95907.41
2024-02-28T03:06:51.436Z,95913.72
2024-02-28T03:08:54.240Z,95915.25
2024-02-28T03:10:56.004Z,95919.41
2024-02-28T03:13:01.799Z,95913.34
2024-02-28T03:15:05.162Z,95922.00
2024-02-28T03:17:07.856Z,95926.09
2024-02-28T03:19:12.019Z,95927.75
2024-02-28T03:21:14.789Z,95936.75
2024-02-28T03:23:17.584Z,95935.75
2024-02-28T03:25:20.273Z,95935.88
2024-02-28T03:27:22.106Z,95935.31
2024-02-28T03:29:26.340Z,95944.88
2024-02-28T03:31:29.505Z,95943.63
2024-02-28T03:33:34.068Z,95945.22
2024-02-28T03:35:36.869Z,95947.78
2024-02-28T03:37:39.615Z,95945.53
2024-02-28T03:39:42.487Z,95951.41
2024-02-28T03:41:45.418Z,95948.47
2024-02-28T03:43:48.145Z,95948.38
2024-02-28T03:45:52.304Z,95947.91
2024-02-28T03:47:54.126Z,95956.25
2024-02-28T03:49:58.407Z,95964.22
2024-02-28T03:52:00.333Z,95952.66
2024-02-28T03:54:04.108Z,95964.91
2024-02-28T03:56:07.318Z,95963.34
2024-02-28T03:58:10.034Z,95961.84
2024-02-28T04:00:14.105Z,95958.59
2024-02-28T04:02:18.274Z,95964.66
2024-02-28T04:04:20.962Z,95965.13
2024-02-28T04:06:22.940Z,95964.56
2024-02-28T04:08:25.764Z,95966.47
2024-02-28T04:10:28.487Z,95968.03
2024-02-28T04:12:31.398Z,95973.31
2024-02-28T04:14:34.111Z,95975.13
2024-02-28T04:16:36.805Z,95972.41
2024-02-28T04:18:40.892Z,95970.94
2024-02-28T04:20:42.689Z,95974.84
2024-02-28T04:22:45.424Z,95974.91
2024-02-28T04:24:48.204Z,95982.34
2024-02-28T04:26:54.403Z,95982.66
2024-02-28T04:28:57.488Z,95979.50
2024-02-28T04:31:00.310Z,95977.59
2024-02-28T04:33:03.579Z,95977.38
2024-02-28T04:35:08.072Z,95973.66
2024-02-28T04:37:10.754Z,95982.94
2024-02-28T04:39:13.566Z,95986.09
2024-02-28T04:41:18.093Z,95985.31
2024-02-28T04:43:21.029Z,95987.22
2024-02-28T04:45:23.865Z,95988.78
2024-02-28T04:47:33.226Z,95994.63
2024-02-28T04:49:39.797Z,95993.63
2024-02-28T04:51:42.913Z,95996.53
2024-02-28T04:53:45.742Z,95994.84
2024-02-28T04:55:48.475Z,96003.03
2024-02-28T04:57:51.230Z,95998.88
2024-02-28T04:59:54.130Z,96001.66
2024-02-28T05:01:56.843Z,95995.84
2024-02-28T05:03:59.581Z,95992.13
2024-02-28T05:06:02.289Z,96001.66
2024-02-28T05:08:06.730Z,95991.88
2024-02-28T05:10:09.239Z,95996.25
2024-02-28T05:12:13.956Z,96003.78
2024-02-28T05:14:16.732Z,96002.41
2024-02-28T05:16:19.487Z,96005.00
2024-02-28T05:18:22.279Z,96003.78
2024-02-28T05:20:25.318Z,96007.38
2024-02-28T05:22:28.103Z,96012.09
2024-02-28T05:24:32.219Z,96021.44
2024-02-28T05:26:36.921Z,96030.75
2024-02-28T05:28:39.898Z,96022.44
2024-02-28T05:30:46.122Z,96027.22
2024-02-28T05:32:49.741Z,96025.59
2024-02-28T05:34:52.435Z,96021.38
2024-02-28T05:36:55.245Z,96021.00
2024-02-28T05:38:58.876Z,96028.75
2024-02-28T05:41:02.948Z,96028.06
2024-02-28T05:43:06.075Z,96032.22
2024-02-28T05:45:08.516Z,96030.06
2024-02-28T05:47:11.197Z,96038.38
2024-02-28T05:49:13.963Z,96040.97
2024-02-28T05:51:17.745Z,96037.00
2024-02-28T05:53:20.858Z,96042.97
2024-02-28T05:55:25.278Z,96045.34
2024-02-28T05:57:29.409Z,96047.84
2024-02-28T05:59:32.173Z,96059.91
2024-02-28T06:01:35.024Z,96055.56
2024-02-28T06:03:38.158Z,96062.22
2024-02-28T06:05:43.723Z,96067.63
2024-02-28T06:07:46.618Z,96063.97
2024-02-28T06:09:49.529Z,96065.63
2024-02-28T06:11:52.275Z,96062.88
2024-02-28T06:13:56.421Z,96068.06
2024-02-28T06:16:00.003Z,96074.16
2024-02-28T06:18:02.152Z,96068.06
2024-02-28T06:20:05.524Z,96074.59
2024-02-28T06:22:08.698Z,96081.41
2024-02-28T06:24:11.371Z,96087.13
2024-02-28T06:26:18.374Z,96089.44
2024-02-28T06:28:21.998Z,96094.19
2024-02-28T06:30:26.108Z,96102.06
2024-02-28T06:32:28.893Z,96101.84
2024-02-28T06:34:30.691Z,96102.78
2024-02-28T06:36:33.422Z,96104.72
2024-02-28T06:38:36.998Z,96106.66
2024-02-28T06:40:40.171Z,96113.53
2024-02-28T06:42:42.039Z,96114.09
2024-02-28T06:44:44.839Z,96112.25
2024-02-28T06:46:48.918Z,96110.97
2024-02-28T06:48:51.707Z,96111.38
2024-02-28T06:50:54.494Z,96123.44
2024-02-28T06:52:57.308Z,96122.00
2024-02-28T06:55:01.225Z,96122.56
2024-02-28T06:57:04.427Z,96126.44
2024-02-28T06:59:08.077Z,96122.44
2024-02-28T07:01:11.124Z,96123.13
2024-02-28T07:03:15.305Z,96128.22
2024-02-28T07:05:18.123Z,96129.72
2024-02-28T07:07:20.986Z,96135.25
2024-02-28T07:09:26.655Z,96137.19
2024-02-28T07:11:29.451Z,96144.09
2024-02-28T07:13:32.199Z,96137.91
2024-02-28T07:15:34.918Z,96139.06
2024-02-28T07:17:37.751Z,96136.13
2024-02-28T07:19:41.828Z,96142.22
2024-02-28T07:21:44.562Z,96144.25
2024-02-28T07:23:47.435Z,96147.38
2024-02-28T07:25:49.217Z,96144.94
2024-02-28T07:27:51.993Z,96150.81
2024-02-28T07:29:53.877Z,96151.94
2024-02-28T07:31:56.767Z,96147.34
2024-02-28T07:33:59.600Z,96153.53
2024-02-28T07:36:04.422Z,96151.63
2024-02-28T07:38:07.292Z,96151.78
2024-02-28T07:40:10.462Z,96156.84
2024-02-28T07:42:13.225Z,96156.06
2024-02-28T07:44:15.990Z,96158.88
2024-02-28T07:46:18.686Z,96158.88
2024-02-28T07:48:21.510Z,96158.09
2024-02-28T07:50:24.231Z,96162.81
2024-02-28T07:52:28.312Z,96166.88
2024-02-28T07:54:31.063Z,96170.44
2024-02-28T07:56:34.426Z,96171.25
2024-02-28T07:58:37.086Z,96176.31
2024-02-28T08:00:40.230Z,96183.63
2024-02-28T08:02:43.011Z,96179.47
2024-02-28T08:04:45.767Z,96181.84
2024-02-28T08:06:48.494Z,96192.72
2024-02-28T08:08:52.720Z,96192.72
2024-02-28T08:10:54.464Z,96192.72
2024-02-28T08:12:57.596Z,96183.97
2024-02-28T08:15:00.385Z,96182.38
2024-02-28T08:17:03.533Z,96180.81
2024-02-28T08:19:06.342Z,96189.47
2024-02-28T08:21:08.101Z,96184.66
2024-02-28T08:23:11.069Z,96191.41
2024-02-28T08:25:15.414Z,96190.97
2024-02-28T08:27:18.129Z,96201.31
2024-02-28T08:29:20.897Z,96198.94
2024-02-28T08:31:23.629Z,96198.50
2024-02-28T08:33:25.501Z,96202.09
2024-02-28T08:35:28.356Z,96208.06
2024-02-28T08:37:31.153Z,96207.59
2024-02-28T08:39:32.919Z,96204.94
2024-02-28T08:41:37.057Z,96204.25
2024-02-28T08:43:40.706Z,96206.84
2024-02-28T08:45:43.621Z,96211.50
2024-02-28T08:47:46.824Z,96211.81
2024-02-28T08:49:49.555Z,96218.94
2024-02-28T08:51:52.352Z,96211.31
2024-02-28T08:53:56.767Z,96217.59
2024-02-28T08:55:59.598Z,96215.38
2024-02-28T08:58:03.753Z,96220.63
2024-02-28T09:00:09.893Z,96220.75
2024-02-28T09:02:13.201Z,96214.56
2024-02-28T09:04:15.934Z,96217.25
2024-02-28T09:06:18.971Z,96221.19
2024-02-28T09:08:21.709Z,96218.81
2024-02-28T09:10:26.079Z,96222.53
2024-02-28T09:12:28.957Z,96227.03
2024-02-28T09:14:33.089Z,96222.88
2024-02-28T09:16:35.825Z,96223.22
2024-02-28T09:18:39.376Z,96224.78
2024-02-28T09:20:42.103Z,96225.94
2024-02-28T09:22:44.836Z,96218.31
2024-02-28T09:24:47.550Z,96224.16
2024-02-28T09:26:50.282Z,96222.72
2024-02-28T09:28:53.035Z,96226.88
2024-02-28T09:30:56.743Z,96219.56
2024-02-28T09:32:59.728Z,96218.00
2024-02-28T09:35:02.790Z,96216.78
2024-02-28T09:37:05.625Z,96213.63
2024-02-28T09:39:07.478Z,96219.25
2024-02-28T09:41:16.455Z,96213.41
2024-02-28T09:43:28.407Z,96217.94
2024-02-28T09:45:31.704Z,96223.66
2024-02-28T09:47:36.280Z,96232.22
2024-02-28T09:49:39.145Z,96232.00
2024-02-28T09:51:42.725Z,96227.03
2024-02-28T09:53:45.477Z,96226.22
2024-02-28T09:55:48.726Z,96224.88
2024-02-28T09:57:54.664Z,96225.53
2024-02-28T10:00:00.047Z,96221.78
2024-02-28T10:02:04.722Z,96221.66
2024-02-28T10:04:11.331Z,96223.91
2024-02-28T10:06:14.870Z,96227.84
2024-02-28T10:08:18.136Z,96226.59
2024-02-28T10:10:20.024Z,96232.94
2024-02-28T10:12:22.879Z,96225.25
2024-02-28T10:14:26.788Z,96230.31
2024-02-28T10:16:29.621Z,96231.75
2024-02-28T10:18:32.515Z,96230.28
2024-02-28T10:20:36.941Z,96238.84
2024-02-28T10:22:40.018Z,96239.59
2024-02-28T10:24:42.767Z,96236.16
2024-02-28T10:26:45.865Z,96239.06
2024-02-28T10:28:47.592Z,96238.13
2024-02-28T10:30:50.370Z,96242.94
2024-02-28T10:32:53.188Z,96252.88
2024-02-28T10:34:56.715Z,96249.91
2024-02-28T10:37:02.040Z,96254.63
2024-02-28T10:39:05.934Z,96259.91
2024-02-28T10:41:11.367Z,96262.50
2024-02-28T10:43:18.583Z,96264.66
2024-02-28T10:45:32.966Z,96267.53
2024-02-28T10:47:45.328Z,96264.00
2024-02-28T10:49:48.140Z,96268.78
2024-02-28T10:51:52.869Z,96273.00
2024-02-28T10:54:10.399Z,96265.25
2024-02-28T10:56:14.406Z,96264.91
2024-02-28T10:58:18.590Z,96265.38
2024-02-28T11:00:21.935Z,96257.25
2024-02-28T11:02:26.399Z,96261.03
2024-02-28T11:04:29.474Z,96267.53
2024-02-28T11:06:32.260Z,96254.50
2024-02-28T11:08:36.198Z,96260.88
2024-02-28T11:10:45.088Z,96267.72
2024-02-28T11:12:57.516Z,96269.22
2024-02-28T11:15:01.885Z,96275.94
2024-02-28T11:17:06.524Z,96275.78
2024-02-28T11:19:09.324Z,96280.84
2024-02-28T11:21:17.666Z,96282.72
2024-02-28T11:23:19.476Z,96288.16
2024-02-28T11:25:22.347Z,96288.06
2024-02-28T11:27:26.880Z,96290.69
2024-02-28T11:29:30.555Z,96286.28
2024-02-28T11:31:33.275Z,96281.94
2024-02-28T11:33:36.574Z,96283.13
2024-02-28T11:35:39.619Z,96285.97
2024-02-28T11:37:42.452Z,96277.34
2024-02-28T11:39:49.050Z,96277.19
2024-02-28T11:41:52.162Z,96277.53
2024-02-28T11:43:56.194Z,96278.53
2024-02-28T11:45:58.995Z,96289.91
2024-02-28T11:48:03.659Z,96286.63
2024-02-28T11:50:10.455Z,96286.06
2024-02-28T11:52:15.311Z,96278.38
2024-02-28T11:54:18.267Z,96279.63
2024-02-28T11:56:22.674Z,96280.31
2024-02-28T11:58:25.647Z,96272.84
2024-02-28T12:00:30.076Z,96277.81
2024-02-28T12:02:32.797Z,96283.75
2024-02-28T12:04:38.205Z,96285.50
2024-02-28T12:06:41.018Z,96282.56
2024-02-28T12:08:43.738Z,96281.22
2024-02-28T12:10:46.529Z,96277.69
2024-02-28T12:12:51.006Z,96280.44
2024-02-28T12:14:53.869Z,96276.38
2024-02-28T12:16:59.589Z,96274.84
2024-02-28T12:19:01.549Z,96264.31
2024-02-28T12:21:04.900Z,96273.34
2024-02-28T12:23:09.271Z,96263.97
2024-02-28T12:25:14.757Z,96258.31
2024-02-28T12:27:18.216Z,96263.97
2024-02-28T12:29:20.912Z,96261.63
2024-02-28T12:31:23.754Z,96258.06
2024-02-28T12:33:27.188Z,96263.03
2024-02-28T12:35:29.982Z,96258.78
2024-02-28T12:37:32.767Z,96255.41
2024-02-28T12:39:35.521Z,96257.06
2024-02-28T12:41:39.140Z,96251.94
2024-02-28T12:43:40.975Z,96255.16
2024-02-28T12:45:43.888Z,96252.94
2024-02-28T12:47:48.938Z,96255.72
2024-02-28T12:49:54.588Z,96251.31
2024-02-28T12:51:58.185Z,96241.00
2024-02-28T12:54:00.472Z,96244.69
2024-02-28T12:56:03.157Z,96241.16
2024-02-28T12:58:06.580Z,96243.84
2024-02-28T13:00:10.135Z,96240.03
2024-02-28T13:02:13.075Z,96244.91
2024-02-28T13:04:15.892Z,96239.88
2024-02-28T13:06:19.973Z,96242.00
2024-02-28T13:08:24.161Z,96244.75
2024-02-28T13:10:26.982Z,96243.66
2024-02-28T13:12:28.868Z,96248.69
2024-02-28T13:14:31.664Z,96242.41
2024-02-28T13:16:33.637Z,96237.53
2024-02-28T13:18:36.430Z,96243.03
2024-02-28T13:20:40.949Z,96249.97
2024-02-28T13:22:45.279Z,96254.09
2024-02-28T13:24:48.017Z,96248.56
2024-02-28T13:26:50.990Z,96251.47
2024-02-28T13:28:54.754Z,96246.94
2024-02-28T13:30:57.599Z,96252.75
2024-02-28T13:33:00.583Z,96254.66
2024-02-28T13:35:05.713Z,96254.78
2024-02-28T13:37:08.894Z,96251.00
2024-02-28T13:39:13.318Z,96250.66
2024-02-28T13:41:17.482Z,96250.38
2024-02-28T13:43:21.051Z,96249.06
2024-02-28T13:45:23.037Z,96239.72
2024-02-28T13:47:25.934Z,96242.78
2024-02-28T13:49:28.663Z,96238.16
2024-02-28T13:51:31.512Z,96234.38
2024-02-28T13:53:34.315Z,96230.28
2024-02-28T13:55:37.418Z,96232.78
2024-02-28T13:57:40.247Z,96224.75
2024-02-28T13:59:44.186Z,96224.88
2024-02-28T14:01:47.036Z,96225.34
2024-02-28T14:03:50.159Z,96219.50
2024-02-28T14:05:53.183Z,96225.50
2024-02-28T14:07:55.909Z,96228.19
2024-02-28T14:09:59.589Z,96231.47
2024-02-28T14:12:03.770Z,96226.31
2024-02-28T14:14:06.517Z,96227.34
2024-02-28T14:16:09.816Z,96229.31
2024-02-28T14:18:13.081Z,96236.25
2024-02-28T14:20:16.190Z,96249.66
2024-02-28T14:22:19.013Z,96249.03
2024-02-28T14:24:21.880Z,96247.44
2024-02-28T14:26:25.403Z,96244.28
2024-02-28T14:28:29.666Z,96250.25
2024-02-28T14:30:32.533Z,96249.50
2024-02-28T14:32:35.302Z,96245.84
2024-02-28T14:34:38.093Z,96241.78
2024-02-28T14:36:40.817Z,96255.16
2024-02-28T14:38:44.932Z,96247.44
2024-02-28T14:40:48.309Z,96250.75
2024-02-28T14:42:51.102Z,96250.13
2024-02-28T14:44:55.520Z,96250.34
2024-02-28T14:46:58.566Z,96243.44
2024-02-28T14:49:01.344Z,96241.84
2024-02-28T14:51:04.458Z,96240.84
2024-02-28T14:53:07.716Z,96245.81
2024-02-28T14:55:11.566Z,96244.84
2024-02-28T14:57:14.801Z,96238.53
2024-02-28T14:59:16.589Z,96247.56
2024-02-28T15:01:20.703Z,96245.13
2024-02-28T15:03:24.306Z,96244.72
2024-02-28T15:05:28.347Z,96246.94
2024-02-28T15:07:31.125Z,96243.50
2024-02-28T15:09:36.050Z,96241.56
2024-02-28T15:11:39.894Z,96235.22
2024-02-28T15:13:43.355Z,96242.09
2024-02-28T15:15:45.180Z,96241.88
2024-02-28T15:17:49.325Z,96242.13
2024-02-28T15:19:51.280Z,96243.84
2024-02-28T15:21:54.404Z,96229.56
2024-02-28T15:23:56.218Z,96236.00
2024-02-28T15:25:59.038Z,96228.78
2024-02-28T15:28:01.150Z,96239.72
2024-02-28T15:30:06.089Z,96232.47
2024-02-28T15:32:07.903Z,96234.16
2024-02-28T15:34:12.523Z,96236.78
2024-02-28T15:36:15.283Z,96238.09
2024-02-28T15:38:17.142Z,96244.66
2024-02-28T15:40:22.296Z,96236.31
2024-02-28T15:42:24.191Z,96235.22
2024-02-28T15:44:27.002Z,96239.16
2024-02-28T15:46:29.968Z,96236.03
2024-02-28T15:48:32.739Z,96239.69
2024-02-28T15:50:37.017Z,96238.88
2024-02-28T15:52:39.847Z,96225.25
2024-02-28T15:54:42.667Z,96230.41
2024-02-28T15:56:45.454Z,96241.06
2024-02-28T15:58:48.158Z,96232.81
2024-02-28T16:00:51.855Z,96228.56
2024-02-28T16:02:54.745Z,96229.97
2024-02-28T16:04:57.485Z,96239.28
2024-02-28T16:07:02.449Z,96236.13
2024-02-28T16:09:06.674Z,96237.28
2024-02-28T16:11:10.037Z,96246.16
2024-02-28T16:13:13.120Z,96236.19
2024-02-28T16:15:16.126Z,96244.72
2024-02-28T16:17:18.818Z,96245.09
2024-02-28T16:19:26.698Z,96240.69
2024-02-28T16:21:30.372Z,96237.56
2024-02-28T16:23:34.928Z,96242.63
2024-02-28T16:25:37.677Z,96250.03
2024-02-28T16:27:41.628Z,96239.94
2024-02-28T16:29:44.384Z,96244.03
2024-02-28T16:31:50.455Z,96251.94
2024-02-28T16:33:53.653Z,96238.56
2024-02-28T16:35:58.006Z,96240.00
2024-02-28T16:38:00.776Z,96247.59
2024-02-28T16:40:07.861Z,96251.06
2024-02-28T16:42:10.656Z,96244.94
2024-02-28T16:44:13.389Z,96247.13
2024-02-28T16:46:16.351Z,96247.06
2024-02-28T16:48:19.141Z,96252.31
2024-02-28T16:50:20.951Z,96251.38
2024-02-28T16:52:23.797Z,96244.41
2024-02-28T16:54:26.586Z,96253.03
2024-02-28T16:56:30.848Z,96247.69
2024-02-28T16:58:36.147Z,96248.75
2024-02-28T17:00:39.067Z,96248.31
2024-02-28T17:02:42.687Z,96248.69
2024-02-28T17:04:45.630Z,96249.63
2024-02-28T17:06:51.209Z,96249.72
2024-02-28T17:08:53.952Z,96259.66
2024-02-28T17:10:57.168Z,96262.16
2024-02-28T17:13:01.518Z,96264.84
2024-02-28T17:15:03.580Z,96265.56
2024-02-28T17:17:06.430Z,96258.09
2024-02-28T17:19:09.290Z,96262.19
2024-02-28T17:21:11.176Z,96263.09
2024-02-28T17:23:13.926Z,96265.47
2024-02-28T17:25:16.772Z,96264.31
2024-02-28T17:27:19.544Z,96270.44
2024-02-28T17:29:23.784Z,96271.31
2024-02-28T17:31:26.508Z,96277.41
2024-02-28T17:33:29.363Z,96267.91
2024-02-28T17:35:31.726Z,96273.56
2024-02-28T17:37:35.050Z,96281.22
2024-02-28T17:39:39.657Z,96279.53
2024-02-28T17:41:43.001Z,96284.16
2024-02-28T17:43:45.860Z,96281.41
2024-02-28T17:45:50.328Z,96290.66
2024-02-28T17:47:53.366Z,96285.56
2024-02-28T17:49:55.573Z,96285.22
2024-02-28T17:51:59.401Z,96283.31
2024-02-28T17:54:02.196Z,96289.47
2024-02-28T17:56:06.946Z,96286.50
2024-02-28T17:58:11.008Z,96291.31
2024-02-28T18:00:14.790Z,96301.63
2024-02-28T18:02:20.100Z,96297.34
2024-02-28T18:04:22.898Z,96297.88
2024-02-28T18:06:25.702Z,96305.38
2024-02-28T18:08:31.258Z,96312.75
2024-02-28T18:10:34.229Z,96298.25
2024-02-28T18:12:36.031Z,96310.75
2024-02-28T18:14:39.577Z,96302.78
2024-02-28T18:16:43.593Z,96305.91
2024-02-28T18:18:47.994Z,96306.91
2024-02-28T18:20:50.844Z,96301.19
2024-02-28T18:22:53.645Z,96301.19
2024-02-28T18:24:58.955Z,96304.34
2024-02-28T18:27:01.744Z,96314.78
2024-02-28T18:29:04.548Z,96312.81
2024-02-28T18:31:07.705Z,96317.19
2024-02-28T18:33:09.478Z,96313.81
2024-02-28T18:35:15.588Z,96307.88
2024-02-28T18:37:18.534Z,96304.06
2024-02-28T18:39:21.402Z,96308.09
2024-02-28T18:41:24.114Z,96310.47
2024-02-28T18:43:26.874Z,96304.50
2024-02-28T18:45:29.688Z,96309.69
2024-02-28T18:47:32.470Z,96297.31
2024-02-28T18:49:35.402Z,96296.97
2024-02-28T18:51:39.579Z,96297.19
2024-02-28T18:53:44.250Z,96287.03
2024-02-28T18:55:47.054Z,96295.81
2024-02-28T18:57:48.977Z,96291.44
2024-02-28T18:59:51.906Z,96285.88
2024-02-28T19:01:54.738Z,96286.69
2024-02-28T19:03:57.623Z,96289.13
2024-02-28T19:06:00.397Z,96289.56
2024-02-28T19:08:04.760Z,96294.94
2024-02-28T19:10:09.334Z,96297.16
2024-02-28T19:12:12.165Z,96287.69
2024-02-28T19:14:15.013Z,96296.25
2024-02-28T19:16:19.568Z,96297.66
2024-02-28T19:18:22.372Z,96289.13
2024-02-28T19:20:25.221Z,96292.13
2024-02-28T19:22:26.986Z,96296.50
2024-02-28T19:24:31.140Z,96292.13
2024-02-28T19:26:33.093Z,96285.38
2024-02-28T19:28:36.086Z,96288.53
2024-02-28T19:30:38.971Z,96287.97
2024-02-28T19:32:41.730Z,96282.25
2024-02-28T19:34:44.625Z,96281.25
2024-02-28T19:36:47.532Z,96275.50
2024-02-28T19:38:50.305Z,96278.50
2024-02-28T19:40:54.462Z,96278.28
2024-02-28T19:42:57.290Z,96274.31
2024-02-28T19:45:00.040Z,96276.75
2024-02-28T19:47:02.788Z,96272.84
2024-02-28T19:49:05.765Z,96263.97
2024-02-28T19:51:08.610Z,96266.97
2024-02-28T19:53:11.747Z,96268.53
2024-02-28T19:55:14.923Z,96264.97
2024-02-28T19:57:19.711Z,96264.75
2024-02-28T19:59:22.508Z,96274.84
2024-02-28T20:01:25.748Z,96275.88
2024-02-28T20:03:28.717Z,96275.28
2024-02-28T20:05:31.473Z,96273.50
2024-02-28T20:07:34.555Z,96279.66
2024-02-28T20:09:37.763Z,96275.72
2024-02-28T20:11:40.782Z,96269.75
2024-02-28T20:13:49.165Z,96277.72
2024-02-28T20:15:52.043Z,96267.78
2024-02-28T20:17:54.650Z,96266.66
2024-02-28T20:19:58.270Z,96259.91
2024-02-28T20:22:01.214Z,96268.66
2024-02-28T20:24:04.033Z,96265.91
2024-02-28T20:26:07.820Z,96269.94
2024-02-28T20:28:11.833Z,96263.63
2024-02-28T20:30:16.377Z,96270.06
2024-02-28T20:32:18.399Z,96264.56
2024-02-28T20:34:21.521Z,96266.66
2024-02-28T20:36:24.385Z,96261.19
2024-02-28T20:38:29.150Z,96264.00
2024-02-28T20:40:31.927Z,96257.53
2024-02-28T20:42:36.634Z,96257.72
2024-02-28T20:44:38.589Z,96253.75
2024-02-28T20:46:42.927Z,96255.00
2024-02-28T20:48:45.760Z,96253.63
2024-02-28T20:50:49.145Z,96259.22
2024-02-28T20:52:52.981Z,96263.00
2024-02-28T20:54:57.538Z,96258.84
2024-02-28T20:57:06.117Z,96257.66
2024-02-28T20:59:15.401Z,96248.59
2024-02-28T21:01:19.194Z,96245.28
2024-02-28T21:03:22.466Z,96242.56
2024-02-28T21:05:25.316Z,96242.41
2024-02-28T21:07:37.148Z,96238.66
2024-02-28T21:09:49.466Z,96245.78
2024-02-28T21:12:03.772Z,96237.66
2024-02-28T21:14:06.540Z,96238.28
2024-02-28T21:16:09.336Z,96235.91
2024-02-28T21:18:12.223Z,96235.53
2024-02-28T21:20:17.211Z,96233.94
2024-02-28T21:22:20.727Z,96239.50
2024-02-28T21:24:23.513Z,96238.34
2024-02-28T21:26:26.609Z,96236.75
2024-02-28T21:28:29.389Z,96241.91
2024-02-28T21:30:32.278Z,96235.19
2024-02-28T21:32:36.865Z,96239.94
2024-02-28T21:34:38.872Z,96241.16
2024-02-28T21:36:43.456Z,96236.00
2024-02-28T21:38:46.214Z,96236.00
2024-02-28T21:40:49.001Z,96238.03
2024-02-28T21:42:52.480Z,96237.44
2024-02-28T21:44:55.279Z,96240.38
2024-02-28T21:46:58.104Z,96241.56
2024-02-28T21:49:06.194Z,96246.53
2024-02-28T21:51:13.664Z,96234.06
2024-02-28T21:53:17.789Z,96234.47
2024-02-28T21:55:20.545Z,96227.75
2024-02-28T21:57:23.345Z,96227.94
2024-02-28T21:59:26.139Z,96226.97
2024-02-28T22:01:29.172Z,96234.69
2024-02-28T22:03:31.182Z,96230.94
2024-02-28T22:05:33.913Z,96228.16
2024-02-28T22:07:36.644Z,96226.56
2024-02-28T22:09:40.740Z,96224.41
2024-02-28T22:11:43.509Z,96222.59
2024-02-28T22:13:46.240Z,96217.28
2024-02-28T22:15:48.998Z,96214.72
2024-02-28T22:17:54.394Z,96209.94
2024-02-28T22:19:57.203Z,96203.81
2024-02-28T22:22:00.977Z,96208.34
2024-02-28T22:24:05.245Z,96211.13
2024-02-28T22:26:09.473Z,96213.13
2024-02-28T22:28:12.280Z,96213.50
2024-02-28T22:30:15.517Z,96204.81
2024-02-28T22:32:18.260Z,96202.03
2024-02-28T22:34:21.079Z,96206.78
2024-02-28T22:36:22.952Z,96201.81
2024-02-28T22:38:25.715Z,96203.22
2024-02-28T22:40:28.429Z,96201.22
2024-02-28T22:42:32.503Z,96195.09
2024-02-28T22:44:35.241Z,96192.53
2024-02-28T22:46:38.223Z,96188.16
2024-02-28T22:48:40.099Z,96192.91
2024-02-28T22:50:43.948Z,96192.13
2024-02-28T22:52:47.819Z,96191.72
2024-02-28T22:54:51.100Z,96190.16
2024-02-28T22:56:53.675Z,96187.38
2024-02-28T22:58:57.870Z,96191.53
2024-02-28T23:01:00.842Z,96187.16
2024-02-28T23:03:10.011Z,96184.81
2024-02-28T23:05:13.283Z,96182.63
2024-02-28T23:07:16.360Z,96177.09
2024-02-28T23:09:19.167Z,96172.13
2024-02-28T23:11:22.144Z,96176.28
2024-02-28T23:13:24.971Z,96172.16
2024-02-28T23:15:29.559Z,96170.75
2024-02-28T23:17:33.214Z,96175.50
2024-02-28T23:19:37.577Z,96166.41
2024-02-28T23:21:40.765Z,96171.53
2024-02-28T23:23:43.634Z,96169.16
2024-02-28T23:25:46.424Z,96169.97
2024-02-28T23:27:49.731Z,96161.66
2024-02-28T23:29:52.496Z,96162.63
2024-02-28T23:31:56.730Z,96154.94
2024-02-28T23:33:58.584Z,96149.38
2024-02-28T23:36:01.342Z,96141.09
2024-02-28T23:38:03.210Z,96137.31
2024-02-28T23:40:07.726Z,96134.72
2024-02-28T23:42:09.635Z,96137.50
2024-02-28T23:44:12.392Z,96133.56
2024-02-28T23:46:15.448Z,96142.28
2024-02-28T23:48:19.689Z,96132.19
2024-02-28T23:50:22.941Z,96129.22
2024-02-28T23:52:25.927Z,96134.75
2024-02-28T23:54:29.438Z,96135.94
2024-02-28T23:56:32.264Z,96133.56
2024-02-28T23:58:34.210Z,96131.78
